Time;durP1;ratioP1;P1;durP2;ratioP2;P2;SDS_P1;SDS_P2;PMS_P1;PMS_P2;Temp;Humidity;BMP_temperature;BMP_pressure;BME280_temperature;BME280_humidity;BME280_pressure;Samples;Min_cycle;Max_cycle;Signal;HPM_P1;HPM_P2
2023/05/27 00:00:20;;;;;;;15.98;6.68;;;;;;;7.84;73.00;102292.75;843725;23;1217;-79
2023/05/27 00:00:41;;;;;;;14.57;6.70;;;;;;;7.89;73.07;102307.81;848891;23;1075;-79
2023/05/27 00:01:02;;;;;;;16.43;7.07;;;;;;;7.83;73.51;102294.44;847838;23;1028;-80
2023/05/27 00:01:23;;;;;;;16.40;7.28;;;;;;;7.88;73.70;102303.44;849393;23;715;-79
2023/05/27 00:01:43;;;;;;;15.18;7.20;;;;;;;7.93;73.46;102316.72;853112;23;929;-78
2023/05/27 00:02:04;;;;;;;13.50;6.88;;;;;;;7.87;73.38;102301.59;849241;23;980;-79
2023/05/27 00:02:25;;;;;;;12.63;6.60;;;;;;;7.89;73.37;102309.50;845238;23;934;-80
2023/05/27 00:02:46;;;;;;;13.00;6.55;;;;;;;7.85;73.17;102300.63;840912;23;1024;-80
2023/05/27 00:03:07;;;;;;;15.43;7.20;;;;;;;7.88;73.42;102302.50;835738;23;1120;-80
2023/05/27 00:03:28;;;;;;;15.18;7.40;;;;;;;7.88;73.07;102305.13;841206;23;830;-80
2023/05/27 00:03:49;;;;;;;16.23;7.50;;;;;;;7.90;73.23;102307.00;839374;23;1111;-80
2023/05/27 00:04:10;;;;;;;16.23;7.38;;;;;;;7.80;73.40;102297.72;841151;23;993;-80
2023/05/27 00:04:30;;;;;;;17.90;7.37;;;;;;;7.84;73.54;102305.75;839621;23;1245;-81
2023/05/27 00:04:51;;;;;;;18.35;7.35;;;;;;;7.76;73.35;102298.34;844901;23;1039;-80
2023/05/27 00:05:12;;;;;;;16.85;7.13;;;;;;;7.76;73.72;102294.84;842631;23;1128;-80
2023/05/27 00:05:32;;;;;;;15.85;7.15;;;;;;;7.79;73.44;102303.72;845204;23;815;-80
2023/05/27 00:05:53;;;;;;;13.90;6.87;;;;;;;7.81;74.03;102309.03;843524;23;1160;-79
2023/05/27 00:06:14;;;;;;;15.45;7.10;;;;;;;7.85;73.41;102318.81;838947;23;1337;-80
2023/05/27 00:06:35;;;;;;;18.17;6.82;;;;;;;7.80;73.74;102309.84;839488;23;1213;-79
2023/05/27 00:06:56;;;;;;;17.25;6.75;;;;;;;7.77;73.79;102304.44;840410;23;1065;-80
2023/05/27 00:07:17;;;;;;;15.53;6.80;;;;;;;7.70;73.71;102289.22;845203;23;919;-81
2023/05/27 00:07:37;;;;;;;15.20;7.20;;;;;;;7.75;73.44;102306.91;835516;23;1362;-80
2023/05/27 00:07:58;;;;;;;17.67;7.35;;;;;;;7.74;73.82;102305.13;838772;23;1240;-80
2023/05/27 00:08:19;;;;;;;17.55;7.18;;;;;;;7.74;73.79;102304.25;839838;23;1043;-80
2023/05/27 00:08:40;;;;;;;15.77;6.90;;;;;;;7.74;73.69;102305.13;840830;23;994;-79
2023/05/27 00:09:00;;;;;;;13.82;6.95;;;;;;;7.68;73.93;102296.94;837307;23;711;-79
2023/05/27 00:09:21;;;;;;;12.98;6.80;;;;;;;7.73;74.12;102302.44;835780;23;1137;-80
2023/05/27 00:09:42;;;;;;;14.50;7.20;;;;;;;7.68;74.02;102299.56;836963;23;1172;-79
2023/05/27 00:10:03;;;;;;;14.52;6.97;;;;;;;7.74;74.09;102319.84;839619;23;1135;-79
2023/05/27 00:10:24;;;;;;;15.25;7.18;;;;;;;7.77;74.32;102315.72;845301;23;782;-79
2023/05/27 00:10:45;;;;;;;15.18;7.35;;;;;;;7.73;74.24;102312.84;840728;23;1041;-79
2023/05/27 00:11:06;;;;;;;15.25;7.55;;;;;;;7.75;74.06;102316.44;841831;23;1119;-81
2023/05/27 00:11:26;;;;;;;14.63;7.38;;;;;;;7.67;74.04;102298.63;845212;23;784;-79
2023/05/27 00:11:47;;;;;;;12.73;7.00;;;;;;;7.79;74.03;102318.41;836890;23;1220;-79
2023/05/27 00:12:08;;;;;;;13.43;7.07;;;;;;;7.80;74.03;102315.03;837661;23;997;-79
2023/05/27 00:12:28;;;;;;;14.68;7.00;;;;;;;7.75;74.38;102311.22;837265;23;824;-79
2023/05/27 00:12:49;;;;;;;14.55;6.88;;;;;;;7.70;74.58;102304.81;843234;23;1058;-81
2023/05/27 00:13:10;;;;;;;14.90;6.73;;;;;;;7.78;74.06;102314.94;843707;23;1197;-79
2023/05/27 00:13:31;;;;;;;14.05;6.50;;;;;;;7.78;74.23;102314.00;847103;23;1501;-79
2023/05/27 00:13:51;;;;;;;15.20;6.53;;;;;;;7.66;74.42;102296.84;844711;23;1000;-79
2023/05/27 00:14:12;;;;;;;16.15;6.80;;;;;;;7.65;74.33;102299.34;842429;23;1289;-79
2023/05/27 00:14:33;;;;;;;15.13;6.95;;;;;;;7.66;74.50;102306.31;840944;23;1056;-80
2023/05/27 00:14:54;;;;;;;12.93;6.73;;;;;;;7.62;73.92;102300.03;844945;23;1026;-79
2023/05/27 00:15:15;;;;;;;12.48;6.75;;;;;;;7.63;74.60;102301.81;839115;23;1150;-80
2023/05/27 00:15:35;;;;;;;15.17;6.83;;;;;;;7.59;74.34;102294.66;839608;23;1434;-80
2023/05/27 00:15:56;;;;;;;19.17;7.10;;;;;;;7.62;74.18;102305.22;843583;23;1281;-79
2023/05/27 00:16:16;;;;;;;20.00;7.10;;;;;;;7.57;74.23;102292.75;847840;23;1303;-79
2023/05/27 00:16:37;;;;;;;18.33;7.07;;;;;;;7.68;74.62;102315.16;843454;23;1169;-79
2023/05/27 00:16:59;;;;;;;16.95;7.30;;;;;;;7.62;74.89;102309.53;842008;23;1146;-79
2023/05/27 00:17:19;;;;;;;15.80;7.35;;;;;;;7.57;74.32;102295.34;843374;23;1845;-79
2023/05/27 00:17:42;;;;;;;15.97;7.53;;;;;;;7.61;74.54;102308.63;840869;23;1061;-79
2023/05/27 00:18:03;;;;;;;16.52;7.70;;;;;;;7.60;74.93;102300.72;841097;23;1001;-79
2023/05/27 00:18:23;;;;;;;15.82;7.50;;;;;;;7.57;74.09;102296.25;839765;23;1422;-79
2023/05/27 00:18:44;;;;;;;14.18;7.20;;;;;;;7.60;74.59;102300.72;842640;23;1061;-79
2023/05/27 00:19:05;;;;;;;13.70;7.20;;;;;;;7.59;74.81;102297.25;847676;23;1136;-78
2023/05/27 00:19:25;;;;;;;13.63;7.13;;;;;;;7.54;74.92;102290.84;843959;23;1190;-79
2023/05/27 00:19:49;;;;;;;13.55;7.10;;;;;;;7.55;74.98;102287.44;844890;23;1897;-79
2023/05/27 00:20:12;;;;;;;16.52;7.00;;;;;;;7.62;74.42;102305.22;843053;23;1251;-79
2023/05/27 00:20:33;;;;;;;18.10;7.18;;;;;;;7.57;74.52;102295.34;839617;23;977;-79
2023/05/27 00:20:54;;;;;;;16.10;7.10;;;;;;;7.59;74.54;102293.72;836910;23;957;-79
2023/05/27 00:21:15;;;;;;;13.50;6.93;;;;;;;7.61;74.41;102297.34;839696;23;1604;-81
2023/05/27 00:21:36;;;;;;;16.02;7.10;;;;;;;7.60;74.54;102291.25;843609;23;1356;-79
2023/05/27 00:21:57;;;;;;;16.88;7.35;;;;;;;7.66;74.22;102296.84;835119;23;1210;-79
2023/05/27 00:22:17;;;;;;;18.63;7.55;;;;;;;7.62;74.48;102292.22;837221;23;1192;-80
2023/05/27 00:22:39;;;;;;;20.43;7.57;;;;;;;7.64;74.11;102292.34;836853;23;966;-81
2023/05/27 00:23:00;;;;;;;19.17;7.25;;;;;;;7.61;74.01;102287.84;838766;23;1316;-79
2023/05/27 00:23:20;;;;;;;18.15;6.65;;;;;;;7.61;74.24;102290.44;844965;23;1033;-81
2023/05/27 00:23:46;;;;;;;17.75;6.70;;;;;;;7.63;74.05;102291.44;848865;23;987;-81
2023/05/27 00:24:07;;;;;;;16.90;6.93;;;;;;;7.57;74.18;102283.25;841138;23;969;-79
2023/05/27 00:24:28;;;;;;;15.23;7.25;;;;;;;7.62;74.59;102299.16;844975;23;1437;-81
2023/05/27 00:24:49;;;;;;;15.33;7.20;;;;;;;7.66;74.34;102306.31;840759;23;1076;-81
2023/05/27 00:25:10;;;;;;;15.75;7.22;;;;;;;7.61;74.73;102298.22;841184;23;1069;-81
2023/05/27 00:25:31;;;;;;;16.90;7.43;;;;;;;7.65;74.56;102296.72;839723;23;1140;-80
2023/05/27 00:25:52;;;;;;;17.30;7.40;;;;;;;7.62;74.72;102299.16;843483;23;1208;-81
2023/05/27 00:26:13;;;;;;;16.27;7.35;;;;;;;7.60;74.34;102296.44;841284;23;996;-81
2023/05/27 00:26:35;;;;;;;16.15;7.50;;;;;;;7.58;74.34;102298.06;839481;23;1850;-80
2023/05/27 00:26:56;;;;;;;17.52;7.57;;;;;;;7.65;74.31;102305.44;839052;23;1162;-78
2023/05/27 00:27:17;;;;;;;16.70;7.40;;;;;;;7.53;74.62;102289.97;846484;23;1263;-81
2023/05/27 00:27:39;;;;;;;15.50;7.30;;;;;;;7.57;74.27;102293.66;843542;23;1604;-81
2023/05/27 00:27:59;;;;;;;13.32;7.40;;;;;;;7.55;74.60;102287.44;835587;23;1175;-81
2023/05/27 00:28:20;;;;;;;15.37;7.80;;;;;;;7.67;74.46;102316.81;837183;23;1201;-81
2023/05/27 00:28:41;;;;;;;14.55;7.28;;;;;;;7.62;74.40;102304.34;839468;23;1297;-81
2023/05/27 00:29:02;;;;;;;15.73;7.50;;;;;;;7.57;74.73;102298.84;835669;23;1162;-81
2023/05/27 00:29:24;;;;;;;16.67;7.38;;;;;;;7.49;74.51;102282.75;845195;23;830;-81
2023/05/27 00:29:45;;;;;;;18.58;7.70;;;;;;;7.59;74.71;102304.13;844824;23;1142;-81
2023/05/27 00:30:07;;;;;;;19.73;8.02;;;;;;;7.52;74.93;102292.44;839490;23;1129;-81
2023/05/27 00:30:28;;;;;;;15.68;7.72;;;;;;;7.49;74.90;102292.25;839243;23;1251;-81
2023/05/27 00:30:49;;;;;;;15.40;7.70;;;;;;;7.50;74.58;102291.44;835285;23;1213;-80
2023/05/27 00:31:11;;;;;;;13.88;7.20;;;;;;;7.50;74.58;102299.25;845144;23;1070;-81
2023/05/27 00:31:31;;;;;;;16.43;7.47;;;;;;;7.54;74.76;102296.03;849194;23;768;-81
2023/05/27 00:31:52;;;;;;;14.43;7.00;;;;;;;7.50;75.17;102294.94;847503;23;1218;-81
2023/05/27 00:32:13;;;;;;;16.02;7.28;;;;;;;7.45;74.77;102287.66;841182;23;1018;-81
2023/05/27 00:32:34;;;;;;;17.60;7.95;;;;;;;7.46;75.25;102285.16;843592;23;1176;-80
2023/05/27 00:32:55;;;;;;;19.55;8.38;;;;;;;7.47;74.98;102289.56;840937;23;972;-81
2023/05/27 00:33:16;;;;;;;17.10;7.68;;;;;;;7.45;75.04;102285.97;843718;23;1307;-80
2023/05/27 00:33:39;;;;;;;17.13;7.60;;;;;;;7.52;74.91;102297.66;839303;23;1783;-80
2023/05/27 00:33:59;;;;;;;16.55;7.55;;;;;;;7.59;74.88;102310.25;843886;23;979;-81
2023/05/27 00:34:20;;;;;;;18.77;8.10;;;;;;;7.52;74.78;102297.66;845198;23;1200;-80
2023/05/27 00:34:41;;;;;;;19.38;7.97;;;;;;;7.47;74.93;102284.34;844830;23;1017;-80
2023/05/27 00:35:01;;;;;;;17.05;7.43;;;;;;;7.49;74.89;102292.25;839747;23;1158;-81
2023/05/27 00:35:22;;;;;;;16.57;7.63;;;;;;;7.54;74.84;102301.22;841213;23;831;-81
2023/05/27 00:35:43;;;;;;;16.60;7.90;;;;;;;7.51;74.68;102294.13;836938;23;962;-81
2023/05/27 00:36:04;;;;;;;19.63;8.60;;;;;;;7.49;75.10;102292.25;839779;23;1244;-81
2023/05/27 00:36:24;;;;;;;19.40;8.27;;;;;;;7.45;75.33;102285.06;839691;23;1033;-81
2023/05/27 00:36:45;;;;;;;19.15;8.10;;;;;;;7.56;75.06;102302.25;842833;23;1179;-80
2023/05/27 00:37:06;;;;;;;17.00;7.57;;;;;;;7.48;75.08;102295.63;839801;23;1132;-82
2023/05/27 00:37:27;;;;;;;17.02;7.50;;;;;;;7.47;75.08;102289.56;835004;23;1425;-81
2023/05/27 00:37:47;;;;;;;15.60;7.43;;;;;;;7.48;75.17;102295.63;835410;23;1046;-81
2023/05/27 00:38:08;;;;;;;16.00;7.68;;;;;;;7.53;75.22;102304.63;841136;23;973;-81
2023/05/27 00:38:29;;;;;;;14.60;7.43;;;;;;;7.42;74.82;102288.34;845146;23;840;-81
2023/05/27 00:38:50;;;;;;;13.73;7.18;;;;;;;7.45;75.07;102292.84;843340;23;1063;-81
2023/05/27 00:39:11;;;;;;;12.60;7.18;;;;;;;7.52;75.28;102314.16;849094;23;1058;-81
2023/05/27 00:39:32;;;;;;;13.57;7.40;;;;;;;7.39;75.08;102288.16;843793;23;1333;-81
2023/05/27 00:39:53;;;;;;;14.05;7.90;;;;;;;7.50;75.20;102300.13;843372;23;1905;-81
2023/05/27 00:40:19;;;;;;;14.90;7.63;;;;;;;7.49;75.20;102302.66;838562;23;1169;-79
2023/05/27 00:40:40;;;;;;;14.68;7.38;;;;;;;7.39;75.26;102294.22;838485;23;1176;-81
2023/05/27 00:41:03;;;;;;;14.63;7.32;;;;;;;7.36;75.39;102290.53;841142;23;858;-81
2023/05/27 00:41:26;;;;;;;14.68;7.55;;;;;;;7.38;75.29;102305.41;839797;23;1281;-81
2023/05/27 00:41:50;;;;;;;14.23;7.45;;;;;;;7.33;75.54;102301.63;844773;23;1013;-81
2023/05/27 00:42:13;;;;;;;14.93;7.25;;;;;;;7.35;75.99;102299.13;845151;23;1047;-82
2023/05/27 00:42:34;;;;;;;14.00;7.18;;;;;;;7.37;75.65;102306.22;839561;23;1322;-81
2023/05/27 00:42:55;;;;;;;16.00;7.70;;;;;;;7.30;75.60;102291.03;835615;23;1353;-81
2023/05/27 00:43:15;;;;;;;15.38;7.78;;;;;;;7.28;75.96;102279.66;844332;23;1247;-80
2023/05/27 00:43:36;;;;;;;17.45;7.90;;;;;;;7.37;75.66;102303.63;845074;23;1042;-81
2023/05/27 00:43:57;;;;;;;17.77;7.80;;;;;;;7.32;75.65;102298.94;849177;23;1063;-81
2023/05/27 00:44:17;;;;;;;17.88;8.02;;;;;;;7.37;75.84;102310.53;849312;23;1130;-81
2023/05/27 00:44:38;;;;;;;15.05;7.65;;;;;;;7.30;76.17;102285.84;849098;23;968;-81
2023/05/27 00:44:59;;;;;;;12.90;7.47;;;;;;;7.28;75.90;102292.63;838875;23;1169;-80
2023/05/27 00:45:20;;;;;;;15.80;7.30;;;;;;;7.39;76.00;102312.41;839694;23;1188;-81
2023/05/27 00:45:42;;;;;;;18.98;7.93;;;;;;;7.38;75.73;102304.53;840807;23;1059;-81
2023/05/27 00:46:03;;;;;;;20.27;7.78;;;;;;;7.36;75.85;102300.91;843821;23;1132;-81
2023/05/27 00:46:24;;;;;;;18.08;7.80;;;;;;;7.38;76.12;102302.81;843673;23;1082;-80
2023/05/27 00:46:46;;;;;;;16.23;7.60;;;;;;;7.35;76.18;102300.03;842106;23;1337;-81
2023/05/27 00:47:07;;;;;;;20.83;8.45;;;;;;;7.33;75.92;102296.44;843489;23;1508;-81
2023/05/27 00:47:30;;;;;;;21.00;8.43;;;;;;;7.29;75.91;102289.25;842750;23;1222;-81
2023/05/27 00:47:51;;;;;;;17.55;7.97;;;;;;;7.39;76.01;102294.22;836769;23;1061;-81
2023/05/27 00:48:12;;;;;;;15.13;7.68;;;;;;;7.40;76.01;102293.47;842625;23;1803;-81
2023/05/27 00:48:34;;;;;;;14.82;7.53;;;;;;;7.35;75.93;102289.66;839863;23;1316;-81
2023/05/27 00:48:55;;;;;;;17.85;7.88;;;;;;;7.30;75.83;102280.66;838744;23;1147;-81
2023/05/27 00:49:17;;;;;;;16.72;7.68;;;;;;;7.35;76.09;102293.94;845240;23;1030;-81
2023/05/27 00:49:38;;;;;;;16.25;7.63;;;;;;;7.36;75.86;102298.31;845230;23;1024;-81
2023/05/27 00:50:00;;;;;;;11.80;7.10;;;;;;;7.42;75.82;102300.44;849500;23;776;-82
2023/05/27 00:50:21;;;;;;;13.07;7.22;;;;;;;7.33;75.93;102285.16;847987;23;1151;-81
2023/05/27 00:50:42;;;;;;;14.95;7.50;;;;;;;7.33;76.08;102293.84;843038;23;1349;-82
2023/05/27 00:51:03;;;;;;;15.93;7.90;;;;;;;7.31;76.24;102289.34;839941;23;1278;-81
2023/05/27 00:51:24;;;;;;;13.73;7.63;;;;;;;7.37;76.26;102303.63;845488;23;903;-80
2023/05/27 00:51:45;;;;;;;14.32;7.50;;;;;;;7.42;76.35;102300.44;846805;23;1211;-80
2023/05/27 00:52:06;;;;;;;15.70;7.30;;;;;;;7.32;76.12;102284.25;849546;23;1267;-80
2023/05/27 00:52:27;;;;;;;15.63;7.45;;;;;;;7.31;76.36;102291.94;845542;23;818;-81
2023/05/27 00:52:48;;;;;;;12.95;7.32;;;;;;;7.40;76.05;102309.03;843602;23;1276;-81
2023/05/27 00:53:08;;;;;;;14.25;7.70;;;;;;;7.29;76.19;102284.03;844098;23;1013;-81
2023/05/27 00:53:38;;;;;;;14.18;7.50;;;;;;;7.33;75.92;102287.75;836095;23;1274;-81
2023/05/27 00:53:59;;;;;;;14.20;7.40;;;;;;;7.34;76.47;102290.44;844010;23;838;-81
2023/05/27 00:54:21;;;;;;;16.48;7.95;;;;;;;7.31;75.90;102287.63;844017;23;1191;-82
2023/05/27 00:54:42;;;;;;;17.45;8.07;;;;;;;7.39;75.90;102302.03;839774;23;1372;-81
2023/05/27 00:55:03;;;;;;;16.85;8.15;;;;;;;7.34;75.87;102297.31;838568;23;1275;-81
2023/05/27 00:55:25;;;;;;;16.92;7.85;;;;;;;7.31;75.94;102292.81;841483;23;846;-81
2023/05/27 00:55:46;;;;;;;17.55;7.85;;;;;;;7.25;76.27;102279.47;840883;23;899;-81
2023/05/27 00:56:11;;;;;;;16.83;7.63;;;;;;;7.35;76.02;102300.03;839875;23;1890;-82
2023/05/27 00:56:32;;;;;;;14.40;7.63;;;;;;;7.35;76.20;102305.22;838957;23;1877;-81
2023/05/27 00:56:52;;;;;;;13.20;7.78;;;;;;;7.29;76.11;102291.84;838925;23;1944;-81
2023/05/27 00:57:28;;;;;;;13.18;7.60;;;;;;;7.23;76.23;102288.81;848001;23;1184;-81
2023/05/27 00:57:49;;;;;;;17.73;7.68;;;;;;;7.29;75.88;102294.44;851501;23;917;-81
2023/05/27 00:58:11;;;;;;;19.00;7.43;;;;;;;7.31;76.00;102307.53;843959;23;1336;-81
2023/05/27 00:58:31;;;;;;;18.80;7.65;;;;;;;7.22;75.98;102281.84;844912;23;756;-81
2023/05/27 00:58:52;;;;;;;15.88;7.78;;;;;;;7.23;75.98;102286.22;843336;23;1347;-82
2023/05/27 00:59:13;;;;;;;16.48;8.00;;;;;;;7.33;76.15;102312.03;845201;23;814;-82
2023/05/27 00:59:34;;;;;;;16.33;7.68;;;;;;;7.26;76.21;102295.13;845287;23;929;-81
2023/05/27 00:59:55;;;;;;;16.48;7.03;;;;;;;7.18;76.28;102285.03;849980;23;1944;-82
2023/05/27 01:00:16;;;;;;;17.63;7.30;;;;;;;7.24;76.04;102295.81;844365;23;1310;-81
2023/05/27 01:00:38;;;;;;;17.27;7.50;;;;;;;7.25;76.03;102297.63;835774;23;1244;-81
2023/05/27 01:00:59;;;;;;;16.30;7.60;;;;;;;7.23;76.25;102299.22;837454;23;798;-81
2023/05/27 01:01:20;;;;;;;15.80;7.60;;;;;;;7.18;76.23;102290.25;835889;23;1178;-81
2023/05/27 01:01:43;;;;;;;16.75;7.78;;;;;;;7.18;75.87;102292.84;835809;23;1072;-81
2023/05/27 01:02:04;;;;;;;18.05;7.55;;;;;;;7.24;76.04;102308.78;839955;23;1268;-81
2023/05/27 01:02:25;;;;;;;17.20;7.20;;;;;;;7.13;76.45;102289.94;836140;23;1286;-81
2023/05/27 01:02:46;;;;;;;16.02;7.00;;;;;;;7.26;76.31;102309.81;831694;23;1234;-81
2023/05/27 01:03:08;;;;;;;14.40;7.05;;;;;;;7.26;76.50;102307.22;832118;23;1249;-81
2023/05/27 01:03:32;;;;;;;14.13;7.00;;;;;;;7.22;76.30;102305.22;833536;23;803;-81
2023/05/27 01:03:55;;;;;;;13.65;7.30;;;;;;;7.13;76.70;102293.41;835683;23;1267;-81
2023/05/27 01:04:17;;;;;;;14.80;7.43;;;;;;;7.11;76.23;102284.63;839907;23;1037;-82
2023/05/27 01:04:38;;;;;;;16.20;7.82;;;;;;;7.23;76.66;102313.09;840966;23;1527;-81
2023/05/27 01:04:59;;;;;;;19.25;7.97;;;;;;;7.21;76.22;102304.31;837430;23;716;-81
2023/05/27 01:05:21;;;;;;;18.10;7.63;;;;;;;7.21;76.59;102300.81;837311;23;1186;-81
2023/05/27 01:05:42;;;;;;;18.02;7.80;;;;;;;7.16;76.66;102297.00;839522;23;1053;-80
2023/05/27 01:06:21;;;;;;;14.98;7.65;;;;;;;7.24;76.90;102306.19;837336;23;1115;-81
2023/05/27 01:07:00;;;;;;;16.52;8.00;;;;;;;7.28;76.59;102310.81;838617;23;1363;-81
2023/05/27 01:08:13;;;;;;;17.58;7.60;;;;;;;7.29;76.00;102307.41;839829;23;1151;-81
2023/05/27 01:08:59;;;;;;;17.38;7.50;;;;;;;7.21;76.56;102290.44;825504;23;1407;-81
2023/05/27 01:09:40;;;;;;;13.52;7.05;;;;;;;7.28;75.97;102305.63;844755;23;987;-81
2023/05/27 01:10:28;;;;;;;12.65;7.00;;;;;;;7.28;76.35;102303.03;839943;23;922;-81
2023/05/27 01:10:54;;;;;;;12.82;7.15;;;;;;;7.26;76.26;102307.22;849104;23;1101;-82
2023/05/27 01:11:21;;;;;;;15.48;7.65;;;;;;;7.22;76.39;102293.13;843226;23;2062;-80
2023/05/27 01:12:10;;;;;;;14.32;7.65;;;;;;;7.21;76.46;102290.44;845144;23;997;-81
2023/05/27 01:12:54;;;;;;;15.55;7.78;;;;;;;7.30;76.67;102311.81;835587;23;1087;-82
2023/05/27 01:13:36;;;;;;;16.58;7.45;;;;;;;7.29;76.61;102302.22;841074;23;944;-81
2023/05/27 01:14:03;;;;;;;17.95;7.20;;;;;;;7.27;76.41;102301.22;841001;23;1158;-82
2023/05/27 01:14:25;;;;;;;17.33;7.82;;;;;;;7.17;76.32;102281.53;837111;23;1083;-81
2023/05/27 01:14:51;;;;;;;16.70;7.65;;;;;;;7.17;76.31;102278.06;836958;23;956;-81
2023/05/27 01:15:12;;;;;;;20.30;7.90;;;;;;;7.19;76.23;102289.44;843938;23;1371;-81
2023/05/27 01:15:34;;;;;;;20.08;8.05;;;;;;;7.18;76.18;102280.72;843754;23;1292;-81
2023/05/27 01:16:01;;;;;;;19.48;8.02;;;;;;;7.15;76.26;102280.53;839340;23;1264;-80
2023/05/27 01:16:24;;;;;;;16.67;7.30;;;;;;;7.14;76.27;102278.75;837338;23;945;-81
2023/05/27 01:16:46;;;;;;;17.27;7.30;;;;;;;7.13;76.34;102280.44;840370;23;966;-81
2023/05/27 01:17:09;;;;;;;16.40;7.20;;;;;;;7.21;76.61;102300.81;835882;23;1489;-81
2023/05/27 01:17:31;;;;;;;15.20;7.50;;;;;;;7.17;76.54;102285.84;840484;23;800;-81
2023/05/27 01:17:56;;;;;;;14.48;7.45;;;;;;;7.15;76.40;102279.63;843413;23;1017;-81
2023/05/27 01:18:22;;;;;;;13.68;7.28;;;;;;;7.32;76.46;102304.13;831900;23;1311;-82
2023/05/27 01:18:48;;;;;;;13.85;7.35;;;;;;;7.32;76.39;102304.13;831199;23;1954;-81
2023/05/27 01:19:17;;;;;;;13.38;7.40;;;;;;;7.20;76.21;102279.16;835838;23;1022;-80
2023/05/27 01:19:47;;;;;;;13.98;7.70;;;;;;;7.25;76.13;102287.25;835694;23;1201;-81
2023/05/27 01:20:13;;;;;;;15.77;7.57;;;;;;;7.27;76.23;102296.03;841350;23;1089;-81
2023/05/27 01:20:34;;;;;;;16.60;7.75;;;;;;;7.18;76.06;102285.03;841120;23;914;-81
2023/05/27 01:21:01;;;;;;;14.85;7.68;;;;;;;7.27;76.49;102303.81;839308;23;1183;-81
2023/05/27 01:21:28;;;;;;;14.32;7.38;;;;;;;7.18;76.32;102287.63;835936;23;1204;-81
2023/05/27 01:21:52;;;;;;;15.10;7.65;;;;;;;7.25;76.19;102295.03;839511;23;942;-81
2023/05/27 01:22:14;;;;;;;18.70;7.70;;;;;;;7.26;76.38;102302.03;839295;23;1028;-82
2023/05/27 01:22:36;;;;;;;19.08;7.57;;;;;;;7.12;76.51;102283.81;841138;23;966;-81
2023/05/27 01:22:59;;;;;;;18.10;7.50;;;;;;;7.18;76.21;102285.03;841166;23;1094;-81
2023/05/27 01:23:20;;;;;;;15.85;7.47;;;;;;;7.27;75.97;102296.03;835800;23;1259;-82
2023/05/27 01:23:46;;;;;;;15.63;7.68;;;;;;;7.24;76.43;102295.81;840949;23;1001;-81
2023/05/27 01:24:07;;;;;;;17.23;7.50;;;;;;;7.23;76.38;102287.13;843894;23;1094;-81
2023/05/27 01:24:31;;;;;;;16.35;7.63;;;;;;;7.13;76.03;102270.03;843687;23;1407;-82
2023/05/27 01:24:52;;;;;;;15.80;7.75;;;;;;;7.29;76.36;102301.34;844976;23;1021;-81
2023/05/27 01:25:14;;;;;;;15.10;7.93;;;;;;;7.18;76.44;102282.44;843447;23;1177;-82
2023/05/27 01:25:35;;;;;;;16.33;8.02;;;;;;;7.17;76.58;102283.25;835868;23;1210;-81
2023/05/27 01:25:55;;;;;;;16.85;7.93;;;;;;;7.17;75.96;102283.25;831395;23;1197;-81
2023/05/27 01:26:16;;;;;;;19.13;8.15;;;;;;;7.16;76.41;102281.41;840001;23;1273;-81
2023/05/27 01:26:37;;;;;;;21.23;8.27;;;;;;;7.18;76.61;102290.25;841211;23;884;-81
2023/05/27 01:27:01;;;;;;;20.70;8.50;;;;;;;7.14;76.32;102286.53;842918;23;1295;-81
2023/05/27 01:27:24;;;;;;;16.65;7.95;;;;;;;7.10;76.15;102285.44;843969;23;1559;-81
2023/05/27 01:27:46;;;;;;;18.02;7.72;;;;;;;7.07;76.22;102284.31;835150;23;1212;-81
2023/05/27 01:28:06;;;;;;;16.27;7.33;;;;;;;7.10;76.82;102289.72;839936;23;1361;-82
2023/05/27 01:28:27;;;;;;;18.10;7.40;;;;;;;7.04;76.59;102282.41;836633;23;933;-81
2023/05/27 01:28:48;;;;;;;15.30;7.28;;;;;;;7.09;76.67;102286.22;841060;23;1008;-81
2023/05/27 01:29:09;;;;;;;17.55;7.78;;;;;;;6.99;77.03;102276.91;843813;23;1236;-82
2023/05/27 01:29:30;;;;;;;16.40;7.80;;;;;;;7.04;76.78;102292.81;839961;23;1401;-81
2023/05/27 01:29:51;;;;;;;17.75;7.97;;;;;;;7.07;76.84;102290.41;845098;23;1101;-81
2023/05/27 01:30:12;;;;;;;16.05;7.70;;;;;;;7.01;76.64;102290.00;843323;23;1348;-80
2023/05/27 01:30:33;;;;;;;14.73;7.53;;;;;;;6.96;76.86;102278.41;839846;23;1318;-81
2023/05/27 01:31:00;;;;;;;13.97;7.23;;;;;;;6.97;76.73;102285.41;841094;23;990;-80
2023/05/27 01:31:57;;;;;;;13.82;6.70;;;;;;;7.05;77.14;102298.91;839790;23;1944;-80
2023/05/27 01:32:30;;;;;;;14.82;7.70;;;;;;;7.04;76.90;102299.69;816249;24;1058;-81
2023/05/27 01:33:07;;;;;;;15.27;7.60;;;;;;;7.03;77.10;102292.69;840880;23;1095;-81
2023/05/27 01:33:34;;;;;;;16.77;7.32;;;;;;;6.92;76.97;102281.56;836469;23;1453;-81
2023/05/27 01:34:00;;;;;;;14.15;6.80;;;;;;;6.94;77.20;102285.19;839697;23;1239;-81
2023/05/27 01:34:28;;;;;;;13.32;7.30;;;;;;;6.90;77.60;102278.00;835759;23;1362;-81
2023/05/27 01:34:58;;;;;;;15.52;7.65;;;;;;;7.01;77.35;102299.47;839476;23;1042;-81
2023/05/27 01:35:21;;;;;;;16.00;7.43;;;;;;;7.00;77.11;102295.97;839804;23;1324;-82
2023/05/27 01:35:51;;;;;;;16.05;7.80;;;;;;;6.94;77.65;102280.91;835056;23;1209;-81
2023/05/27 01:36:16;;;;;;;16.73;7.85;;;;;;;7.10;77.56;102287.13;835122;23;1834;-81
2023/05/27 01:36:48;;;;;;;15.07;7.50;;;;;;;7.09;76.86;102286.22;831352;23;1960;-81
2023/05/27 01:37:16;;;;;;;18.95;8.00;;;;;;;7.05;76.98;102279.03;835107;23;1009;-81
2023/05/27 01:37:42;;;;;;;20.98;8.40;;;;;;;6.93;76.91;102273.03;841107;23;1064;-81
2023/05/27 01:38:07;;;;;;;16.75;7.95;;;;;;;6.90;76.99;102270.22;839916;23;961;-81
2023/05/27 01:38:28;;;;;;;16.38;7.95;;;;;;;6.95;77.21;102292.19;841461;23;838;-81
2023/05/27 01:38:50;;;;;;;15.90;7.57;;;;;;;6.95;77.69;102292.19;839515;23;1246;-80
2023/05/27 01:39:12;;;;;;;15.57;7.30;;;;;;;6.85;77.15;102276.00;839668;23;1269;-80
2023/05/27 01:39:34;;;;;;;14.88;6.95;;;;;;;6.89;77.22;102289.16;831854;23;1273;-81
2023/05/27 01:39:55;;;;;;;15.60;7.47;;;;;;;6.90;77.50;102288.38;841027;23;1952;-81
2023/05/27 01:40:17;;;;;;;14.60;7.80;;;;;;;6.84;77.69;102288.88;831973;23;1792;-81
2023/05/27 01:40:40;;;;;;;15.10;8.02;;;;;;;6.78;77.80;102273.78;836954;23;1115;-81
2023/05/27 01:41:01;;;;;;;15.98;7.85;;;;;;;6.79;77.76;102279.84;833235;23;1016;-81
2023/05/27 01:41:22;;;;;;;14.80;7.95;;;;;;;6.85;77.64;102286.38;837137;23;791;-81
2023/05/27 01:41:45;;;;;;;13.75;7.88;;;;;;;6.77;77.67;102277.19;837014;23;940;-81
2023/05/27 01:42:09;;;;;;;14.05;8.02;;;;;;;6.76;77.90;102271.88;843457;23;965;-81
2023/05/27 01:42:40;;;;;;;17.35;7.75;;;;;;;6.80;78.01;102290.34;843463;23;799;-80
2023/05/27 01:43:01;;;;;;;16.48;7.88;;;;;;;6.79;78.04;102285.97;845446;23;853;-81
2023/05/27 01:43:22;;;;;;;14.77;7.38;;;;;;;6.74;77.83;102279.53;841331;23;846;-81
2023/05/27 01:43:44;;;;;;;15.23;7.50;;;;;;;6.70;78.06;102275.81;837090;23;1016;-81
2023/05/27 01:44:05;;;;;;;15.98;7.63;;;;;;;6.71;78.11;102271.56;835948;23;1031;-82
2023/05/27 01:44:30;;;;;;;15.13;7.95;;;;;;;6.81;78.14;102294.75;841391;23;838;-80
2023/05/27 01:44:52;;;;;;;18.48;8.10;;;;;;;6.79;78.29;102282.44;836970;23;947;-81
2023/05/27 01:45:13;;;;;;;15.98;7.53;;;;;;;6.73;78.62;102280.34;833319;23;1037;-80
2023/05/27 01:45:35;;;;;;;17.50;7.93;;;;;;;6.68;78.21;102271.31;835953;23;1197;-81
2023/05/27 01:45:57;;;;;;;17.80;7.40;;;;;;;6.79;78.28;102291.16;842943;23;1221;-80
2023/05/27 01:46:18;;;;;;;18.10;7.90;;;;;;;6.74;78.17;102276.94;845434;23;1051;-81
2023/05/27 01:46:41;;;;;;;16.27;7.50;;;;;;;6.78;78.15;102288.44;839807;23;1033;-80
2023/05/27 01:47:02;;;;;;;16.35;8.18;;;;;;;6.78;78.61;102289.34;840817;23;775;-81
2023/05/27 01:47:23;;;;;;;17.20;8.10;;;;;;;6.69;78.67;102268.81;839956;23;1296;-81
2023/05/27 01:47:44;;;;;;;17.85;8.45;;;;;;;6.75;78.26;102286.53;839163;23;1358;-81
2023/05/27 01:48:06;;;;;;;18.05;8.20;;;;;;;6.71;78.89;102276.75;841263;23;989;-80
2023/05/27 01:48:27;;;;;;;17.02;8.02;;;;;;;6.75;78.07;102278.75;838538;23;1236;-81
2023/05/27 01:48:48;;;;;;;15.85;8.10;;;;;;;6.80;78.60;102292.94;839466;23;1266;-81
2023/05/27 01:49:09;;;;;;;15.83;8.17;;;;;;;6.75;78.56;102286.53;838402;23;1445;-81
2023/05/27 01:49:31;;;;;;;16.52;7.50;;;;;;;6.71;78.18;102276.75;843938;23;1200;-81
2023/05/27 01:49:51;;;;;;;17.90;7.10;;;;;;;6.71;78.74;102276.75;839471;23;1129;-81